sensor_id;sensor_type;location;lat;lon;timestamp;pressure;altitude;pressure_sealevel;temperature;humidity
31299;BME280;17927;52.350;13.402;2024-03-02T00:00:07;100198.06;;;12.54;57.85
31299;BME280;17927;52.350;13.402;2024-03-02T00:02:43;100207.06;;;12.54;57.80
31299;BME280;17927;52.350;13.402;2024-03-02T00:05:15;100202.47;;;12.55;57.88
31299;BME280;17927;52.350;13.402;2024-03-02T00:07:41;100198.94;;;12.54;57.80
31299;BME280;17927;52.350;13.402;2024-03-02T00:10:09;100186.06;;;12.56;58.05
31299;BME280;17927;52.350;13.402;2024-03-02T00:12:39;100196.91;;;12.56;58.14
31299;BME280;17927;52.350;13.402;2024-03-02T00:15:07;100191.50;;;12.56;57.96
31299;BME280;17927;52.350;13.402;2024-03-02T00:17:42;100195.72;;;12.59;58.28
31299;BME280;17927;52.350;13.402;2024-03-02T00:20:09;100191.31;;;12.58;58.15
31299;BME280;17927;52.350;13.402;2024-03-02T00:22:35;100186.56;;;12.60;58.17
31299;BME280;17927;52.350;13.402;2024-03-02T00:25:03;100185.56;;;12.61;58.07
31299;BME280;17927;52.350;13.402;2024-03-02T00:27:28;100186.38;;;12.61;58.08
31299;BME280;17927;52.350;13.402;2024-03-02T00:29:54;100182.84;;;12.61;58.32
31299;BME280;17927;52.350;13.402;2024-03-02T00:32:19;100180.81;;;12.63;58.18
31299;BME280;17927;52.350;13.402;2024-03-02T00:34:44;100187.94;;;12.64;57.98
31299;BME280;17927;52.350;13.402;2024-03-02T00:37:10;100176.06;;;12.65;58.32
31299;BME280;17927;52.350;13.402;2024-03-02T00:39:36;100176.75;;;12.67;58.34
31299;BME280;17927;52.350;13.402;2024-03-02T00:42:02;100175.91;;;12.67;58.10
31299;BME280;17927;52.350;13.402;2024-03-02T00:44:27;100182.19;;;12.67;58.05
31299;BME280;17927;52.350;13.402;2024-03-02T00:46:55;100176.75;;;12.67;58.29
31299;BME280;17927;52.350;13.402;2024-03-02T00:49:23;100182.19;;;12.67;58.24
31299;BME280;17927;52.350;13.402;2024-03-02T00:51:52;100182.19;;;12.67;58.38
31299;BME280;17927;52.350;13.402;2024-03-02T00:54:26;100175.91;;;12.67;58.46
31299;BME280;17927;52.350;13.402;2024-03-02T00:56:52;100174.06;;;12.67;58.59
31299;BME280;17927;52.350;13.402;2024-03-02T00:59:21;100171.16;;;12.69;58.49
31299;BME280;17927;52.350;13.402;2024-03-02T01:01:47;100171.84;;;12.71;58.51
31299;BME280;17927;52.350;13.402;2024-03-02T01:04:13;100178.28;;;12.70;58.45
31299;BME280;17927;52.350;13.402;2024-03-02T01:06:39;100182.81;;;12.69;58.36
31299;BME280;17927;52.350;13.402;2024-03-02T01:09:04;100179.09;;;12.70;58.61
31299;BME280;17927;52.350;13.402;2024-03-02T01:11:29;100177.41;;;12.69;58.51
31299;BME280;17927;52.350;13.402;2024-03-02T01:13:55;100179.09;;;12.70;58.61
31299;BME280;17927;52.350;13.402;2024-03-02T01:16:20;100174.53;;;12.71;58.58
31299;BME280;17927;52.350;13.402;2024-03-02T01:18:45;100167.25;;;12.71;58.50
31299;BME280;17927;52.350;13.402;2024-03-02T01:21:11;100178.09;;;12.71;58.62
31299;BME280;17927;52.350;13.402;2024-03-02T01:23:37;100166.41;;;12.71;58.79
31299;BME280;17927;52.350;13.402;2024-03-02T01:26:03;100170.63;;;12.73;58.81
31299;BME280;17927;52.350;13.402;2024-03-02T01:28:28;100167.94;;;12.73;58.56
31299;BME280;17927;52.350;13.402;2024-03-02T01:30:53;100166.91;;;12.74;58.73
31299;BME280;17927;52.350;13.402;2024-03-02T01:33:19;100163.38;;;12.74;58.50
31299;BME280;17927;52.350;13.402;2024-03-02T01:35:45;100156.06;;;12.74;58.46
31299;BME280;17927;52.350;13.402;2024-03-02T01:38:10;100155.06;;;12.75;58.55
31299;BME280;17927;52.350;13.402;2024-03-02T01:40:36;100146.94;;;12.75;58.60
31299;BME280;17927;52.350;13.402;2024-03-02T01:43:03;100141.50;;;12.75;58.58
31299;BME280;17927;52.350;13.402;2024-03-02T01:45:29;100149.63;;;12.75;58.69
31299;BME280;17927;52.350;13.402;2024-03-02T01:47:54;100142.53;;;12.74;58.63
31299;BME280;17927;52.350;13.402;2024-03-02T01:50:31;100142.53;;;12.74;58.73
31299;BME280;17927;52.350;13.402;2024-03-02T01:52:57;100140.81;;;12.73;58.79
31299;BME280;17927;52.350;13.402;2024-03-02T01:55:23;100147.09;;;12.74;58.73
31299;BME280;17927;52.350;13.402;2024-03-02T01:57:49;100134.56;;;12.73;58.79
31299;BME280;17927;52.350;13.402;2024-03-02T02:00:16;100124.75;;;12.72;58.85
31299;BME280;17927;52.350;13.402;2024-03-02T02:02:41;100131.19;;;12.71;58.71
31299;BME280;17927;52.350;13.402;2024-03-02T02:05:07;100133.03;;;12.70;58.63
31299;BME280;17927;52.350;13.402;2024-03-02T02:07:32;100129.50;;;12.70;58.75
31299;BME280;17927;52.350;13.402;2024-03-02T02:09:58;100140.53;;;12.68;58.56
31299;BME280;17927;52.350;13.402;2024-03-02T02:12:23;100139.66;;;12.68;58.73
31299;BME280;17927;52.350;13.402;2024-03-02T02:14:49;100126.97;;;12.68;58.95
31299;BME280;17927;52.350;13.402;2024-03-02T02:17:15;100133.22;;;12.69;58.86
31299;BME280;17927;52.350;13.402;2024-03-02T02:19:41;100144.06;;;12.69;58.83
31299;BME280;17927;52.350;13.402;2024-03-02T02:22:06;100130.50;;;12.69;59.12
31299;BME280;17927;52.350;13.402;2024-03-02T02:24:31;100123.22;;;12.69;58.95
31299;BME280;17927;52.350;13.402;2024-03-02T02:26:57;100116.78;;;12.70;59.17
31299;BME280;17927;52.350;13.402;2024-03-02T02:29:22;100125.94;;;12.69;59.08
31299;BME280;17927;52.350;13.402;2024-03-02T02:31:47;100116.13;;;12.68;59.03
31299;BME280;17927;52.350;13.402;2024-03-02T02:34:14;100121.38;;;12.70;59.21
31299;BME280;17927;52.350;13.402;2024-03-02T02:36:39;100120.69;;;12.68;59.24
31299;BME280;17927;52.350;13.402;2024-03-02T02:39:06;100125.94;;;12.69;59.32
31299;BME280;17927;52.350;13.402;2024-03-02T02:41:34;100125.94;;;12.69;59.42
31299;BME280;17927;52.350;13.402;2024-03-02T02:43:59;100121.56;;;12.68;59.55
31299;BME280;17927;52.350;13.402;2024-03-02T02:46:24;100125.94;;;12.69;59.80
31299;BME280;17927;52.350;13.402;2024-03-02T02:48:49;100119.66;;;12.69;59.70
31299;BME280;17927;52.350;13.402;2024-03-02T02:51:16;100127.63;;;12.70;59.77
31299;BME280;17927;52.350;13.402;2024-03-02T02:53:42;100123.06;;;12.71;59.88
31299;BME280;17927;52.350;13.402;2024-03-02T02:56:07;100134.41;;;12.74;59.92
31299;BME280;17927;52.350;13.402;2024-03-02T02:58:32;100130.66;;;12.75;59.96
31299;BME280;17927;52.350;13.402;2024-03-02T03:00:57;100133.38;;;12.75;60.07
31299;BME280;17927;52.350;13.402;2024-03-02T03:03:23;100131.34;;;12.77;60.38
31299;BME280;17927;52.350;13.402;2024-03-02T03:05:48;100124.91;;;12.78;60.16
31299;BME280;17927;52.350;13.402;2024-03-02T03:08:13;100138.13;;;12.82;60.26
31299;BME280;17927;52.350;13.402;2024-03-02T03:10:39;100131.69;;;12.83;60.31
31299;BME280;17927;52.350;13.402;2024-03-02T03:13:05;100126.06;;;12.84;60.26
31299;BME280;17927;52.350;13.402;2024-03-02T03:15:34;100122.16;;;12.87;60.34
31299;BME280;17927;52.350;13.402;2024-03-02T03:18:00;100124.88;;;12.87;60.32
31299;BME280;17927;52.350;13.402;2024-03-02T03:20:25;100124.72;;;12.88;60.36
31299;BME280;17927;52.350;13.402;2024-03-02T03:22:50;100117.41;;;12.89;60.49
31299;BME280;17927;52.350;13.402;2024-03-02T03:25:15;100117.25;;;12.90;60.59
31299;BME280;17927;52.350;13.402;2024-03-02T03:27:40;100113.34;;;12.93;60.62
31299;BME280;17927;52.350;13.402;2024-03-02T03:30:07;100115.88;;;12.94;60.50
31299;BME280;17927;52.350;13.402;2024-03-02T03:32:32;100128.59;;;12.94;60.45
31299;BME280;17927;52.350;13.402;2024-03-02T03:34:57;100120.28;;;12.95;60.48
31299;BME280;17927;52.350;13.402;2024-03-02T03:37:22;100126.56;;;12.96;60.54
31299;BME280;17927;52.350;13.402;2024-03-02T03:39:49;100124.69;;;12.97;60.55
31299;BME280;17927;52.350;13.402;2024-03-02T03:42:14;100121.13;;;12.96;60.72
31299;BME280;17927;52.350;13.402;2024-03-02T03:44:39;100121.13;;;12.96;60.75
31299;BME280;17927;52.350;13.402;2024-03-02T03:47:06;100127.38;;;12.97;60.80
31299;BME280;17927;52.350;13.402;2024-03-02T03:49:32;100127.38;;;12.97;60.80
31299;BME280;17927;52.350;13.402;2024-03-02T03:51:57;100130.97;;;12.97;60.73
31299;BME280;17927;52.350;13.402;2024-03-02T03:54:22;100127.38;;;12.97;61.00
31299;BME280;17927;52.350;13.402;2024-03-02T03:56:47;100137.41;;;12.96;61.01
31299;BME280;17927;52.350;13.402;2024-03-02T03:59:13;100137.22;;;12.98;60.93
31299;BME280;17927;52.350;13.402;2024-03-02T04:01:38;100130.09;;;12.97;61.08
31299;BME280;17927;52.350;13.402;2024-03-02T04:04:03;100137.22;;;12.98;61.27
31299;BME280;17927;52.350;13.402;2024-03-02T04:06:28;100139.94;;;12.98;61.04
31299;BME280;17927;52.350;13.402;2024-03-02T04:08:54;100139.94;;;12.98;61.34
31299;BME280;17927;52.350;13.402;2024-03-02T04:11:19;100135.38;;;12.98;61.25
31299;BME280;17927;52.350;13.402;2024-03-02T04:13:44;100139.78;;;12.99;61.42
31299;BME280;17927;52.350;13.402;2024-03-02T04:16:09;100139.78;;;12.99;61.43
31299;BME280;17927;52.350;13.402;2024-03-02T04:18:35;100137.72;;;13.01;61.57
31299;BME280;17927;52.350;13.402;2024-03-02T04:21:00;100127.72;;;13.02;61.73
31299;BME280;17927;52.350;13.402;2024-03-02T04:23:26;100138.38;;;13.03;61.49
31299;BME280;17927;52.350;13.402;2024-03-02T04:25:51;100132.81;;;13.05;61.56
31299;BME280;17927;52.350;13.402;2024-03-02T04:28:17;100130.91;;;13.05;61.61
31299;BME280;17927;52.350;13.402;2024-03-02T04:30:42;100137.03;;;13.07;61.65
31299;BME280;17927;52.350;13.402;2024-03-02T04:33:07;100130.78;;;13.07;61.48
31299;BME280;17927;52.350;13.402;2024-03-02T04:35:35;100132.44;;;13.08;61.55
31299;BME280;17927;52.350;13.402;2024-03-02T04:38:00;100136.84;;;13.09;61.65
31299;BME280;17927;52.350;13.402;2024-03-02T04:40:25;100140.22;;;13.11;61.58
31299;BME280;17927;52.350;13.402;2024-03-02T04:42:50;100141.09;;;13.12;61.73
31299;BME280;17927;52.350;13.402;2024-03-02T04:45:16;100157.16;;;13.13;61.77
31299;BME280;17927;52.350;13.402;2024-03-02T04:47:41;100164.28;;;13.14;61.98
31299;BME280;17927;52.350;13.402;2024-03-02T04:50:07;100167.66;;;13.16;61.73
31299;BME280;17927;52.350;13.402;2024-03-02T04:52:32;100171.22;;;13.17;61.63
31299;BME280;17927;52.350;13.402;2024-03-02T04:54:58;100177.50;;;13.17;61.90
31299;BME280;17927;52.350;13.402;2024-03-02T04:57:35;100181.72;;;13.20;62.06
31299;BME280;17927;52.350;13.402;2024-03-02T05:00:00;100181.56;;;13.21;61.76
31299;BME280;17927;52.350;13.402;2024-03-02T05:02:25;100191.56;;;13.21;61.81
31299;BME280;17927;52.350;13.402;2024-03-02T05:04:50;100188.84;;;13.21;61.86
31299;BME280;17927;52.350;13.402;2024-03-02T05:07:16;100188.69;;;13.22;61.94
31299;BME280;17927;52.350;13.402;2024-03-02T05:09:41;100195.81;;;13.23;61.79
31299;BME280;17927;52.350;13.402;2024-03-02T05:12:07;100192.22;;;13.23;62.05
31299;BME280;17927;52.350;13.402;2024-03-02T05:14:51;100196.81;;;13.22;61.83
31299;BME280;17927;52.350;13.402;2024-03-02T05:17:16;100206.66;;;13.23;61.99
31299;BME280;17927;52.350;13.402;2024-03-02T05:19:41;100194.94;;;13.23;62.08
31299;BME280;17927;52.350;13.402;2024-03-02T05:22:06;100187.47;;;13.25;61.92
31299;BME280;17927;52.350;13.402;2024-03-02T05:24:32;100187.47;;;13.25;61.89
31299;BME280;17927;52.350;13.402;2024-03-02T05:26:57;100204.59;;;13.25;61.88
31299;BME280;17927;52.350;13.402;2024-03-02T05:29:22;100201.03;;;13.25;62.04
31299;BME280;17927;52.350;13.402;2024-03-02T05:31:48;100195.44;;;13.27;62.00
31299;BME280;17927;52.350;13.402;2024-03-02T05:34:13;100205.25;;;13.28;62.14
31299;BME280;17927;52.350;13.402;2024-03-02T05:36:39;100211.53;;;13.28;61.93
31299;BME280;17927;52.350;13.402;2024-03-02T05:39:05;100211.34;;;13.30;61.93
31299;BME280;17927;52.350;13.402;2024-03-02T05:41:34;100215.09;;;13.29;61.96
31299;BME280;17927;52.350;13.402;2024-03-02T05:43:59;100212.22;;;13.30;61.92
31299;BME280;17927;52.350;13.402;2024-03-02T05:46:24;100218.47;;;13.31;61.99
31299;BME280;17927;52.350;13.402;2024-03-02T05:48:49;100223.06;;;13.30;61.78
31299;BME280;17927;52.350;13.402;2024-03-02T05:51:15;100221.19;;;13.31;62.01
31299;BME280;17927;52.350;13.402;2024-03-02T05:53:40;100222.88;;;13.32;61.95
31299;BME280;17927;52.350;13.402;2024-03-02T05:56:05;100227.47;;;13.31;61.88
31299;BME280;17927;52.350;13.402;2024-03-02T05:58:31;100223.72;;;13.32;62.02
31299;BME280;17927;52.350;13.402;2024-03-02T06:01:08;100216.44;;;13.33;62.04
31299;BME280;17927;52.350;13.402;2024-03-02T06:03:33;100221.88;;;13.33;62.26
31299;BME280;17927;52.350;13.402;2024-03-02T06:05:59;100220.84;;;13.34;61.91
31299;BME280;17927;52.350;13.402;2024-03-02T06:08:24;100225.41;;;13.33;61.74
31299;BME280;17927;52.350;13.402;2024-03-02T06:10:50;100224.59;;;13.33;61.89
31299;BME280;17927;52.350;13.402;2024-03-02T06:13:15;100224.75;;;13.31;62.01
31299;BME280;17927;52.350;13.402;2024-03-02T06:15:40;100230.19;;;13.31;61.86
31299;BME280;17927;52.350;13.402;2024-03-02T06:18:05;100228.50;;;13.30;61.70
31299;BME280;17927;52.350;13.402;2024-03-02T06:20:32;100223.06;;;13.30;61.84
31299;BME280;17927;52.350;13.402;2024-03-02T06:22:58;100227.47;;;13.31;61.88
31299;BME280;17927;52.350;13.402;2024-03-02T06:25:23;100233.06;;;13.30;61.75
31299;BME280;17927;52.350;13.402;2024-03-02T06:27:48;100229.50;;;13.29;61.89
31299;BME280;17927;52.350;13.402;2024-03-02T06:30:13;100232.22;;;13.29;61.92
31299;BME280;17927;52.350;13.402;2024-03-02T06:32:39;100242.06;;;13.30;61.83
31299;BME280;17927;52.350;13.402;2024-03-02T06:35:04;100237.47;;;13.31;61.89
31299;BME280;17927;52.350;13.402;2024-03-02T06:37:30;100238.47;;;13.30;61.86
31299;BME280;17927;52.350;13.402;2024-03-02T06:39:56;100239.50;;;13.29;61.94
31299;BME280;17927;52.350;13.402;2024-03-02T06:42:21;100245.78;;;13.29;62.14
31299;BME280;17927;52.350;13.402;2024-03-02T06:44:46;100249.34;;;13.30;62.05
31299;BME280;17927;52.350;13.402;2024-03-02T06:47:11;100250.84;;;13.32;62.01
31299;BME280;17927;52.350;13.402;2024-03-02T06:49:37;100237.97;;;13.34;62.01
31299;BME280;17927;52.350;13.402;2024-03-02T06:52:02;100247.97;;;13.34;62.03
31299;BME280;17927;52.350;13.402;2024-03-02T06:54:27;100252.38;;;13.35;61.85
31299;BME280;17927;52.350;13.402;2024-03-02T06:56:52;100256.78;;;13.36;62.03
31299;BME280;17927;52.350;13.402;2024-03-02T06:59:18;100255.78;;;13.37;62.06
31299;BME280;17927;52.350;13.402;2024-03-02T07:01:43;100251.19;;;13.37;61.97
31299;BME280;17927;52.350;13.402;2024-03-02T07:04:09;100257.28;;;13.39;61.97
31299;BME280;17927;52.350;13.402;2024-03-02T07:06:34;100244.44;;;13.42;62.02
31299;BME280;17927;52.350;13.402;2024-03-02T07:08:59;100254.06;;;13.44;62.02
31299;BME280;17927;52.350;13.402;2024-03-02T07:11:24;100256.63;;;13.46;61.88
31299;BME280;17927;52.350;13.402;2024-03-02T07:13:49;100263.56;;;13.48;62.08
31299;BME280;17927;52.350;13.402;2024-03-02T07:16:15;100259.84;;;13.49;62.01
31299;BME280;17927;52.350;13.402;2024-03-02T07:18:46;100263.22;;;13.51;62.01
31299;BME280;17927;52.350;13.402;2024-03-02T07:21:16;100255.75;;;13.53;62.14
31299;BME280;17927;52.350;13.402;2024-03-02T07:23:41;100265.41;;;13.56;62.03
31299;BME280;17927;52.350;13.402;2024-03-02T07:26:07;100275.91;;;13.59;61.95
31299;BME280;17927;52.350;13.402;2024-03-02T07:28:32;100269.47;;;13.60;61.77
31299;BME280;17927;52.350;13.402;2024-03-02T07:33:24;100279.13;;;13.63;61.74
31299;BME280;17927;52.350;13.402;2024-03-02T07:35:49;100296.25;;;13.63;61.62
31299;BME280;17927;52.350;13.402;2024-03-02T07:38:14;100287.94;;;13.65;61.65
31299;BME280;17927;52.350;13.402;2024-03-02T07:40:40;100297.94;;;13.64;61.60
31299;BME280;17927;52.350;13.402;2024-03-02T07:43:05;100305.06;;;13.65;61.64
31299;BME280;17927;52.350;13.402;2024-03-02T07:45:30;100310.47;;;13.65;61.70
31299;BME280;17927;52.350;13.402;2024-03-02T07:47:56;100308.78;;;13.64;61.59
31299;BME280;17927;52.350;13.402;2024-03-02T07:50:21;100317.94;;;13.63;61.64
31299;BME280;17927;52.350;13.402;2024-03-02T07:52:46;100315.22;;;13.63;61.80
31299;BME280;17927;52.350;13.402;2024-03-02T07:55:11;100307.78;;;13.65;61.62
31299;BME280;17927;52.350;13.402;2024-03-02T07:57:37;100321.34;;;13.65;61.46
31299;BME280;17927;52.350;13.402;2024-03-02T08:00:02;100319.50;;;13.66;61.52
31299;BME280;17927;52.350;13.402;2024-03-02T08:02:27;100320.16;;;13.68;61.45
31299;BME280;17927;52.350;13.402;2024-03-02T08:04:53;100327.94;;;13.71;61.38
31299;BME280;17927;52.350;13.402;2024-03-02T08:07:18;100321.84;;;13.69;60.83
31299;BME280;17927;52.350;13.402;2024-03-02T08:09:43;100333.38;;;13.71;61.46
31299;BME280;17927;52.350;13.402;2024-03-02T08:12:09;100324.19;;;13.72;61.38
31299;BME280;17927;52.350;13.402;2024-03-02T08:14:34;100334.03;;;13.73;61.52
31299;BME280;17927;52.350;13.402;2024-03-02T08:16:59;100332.00;;;13.75;61.22
31299;BME280;17927;52.350;13.402;2024-03-02T08:19:26;100335.41;;;13.77;61.35
31299;BME280;17927;52.350;13.402;2024-03-02T08:21:51;100345.41;;;13.77;61.23
31299;BME280;17927;52.350;13.402;2024-03-02T08:24:17;100342.72;;;13.77;61.38
31299;BME280;17927;52.350;13.402;2024-03-02T08:26:42;100340.81;;;13.77;61.10
31299;BME280;17927;52.350;13.402;2024-03-02T08:29:07;100336.41;;;13.76;61.38
31299;BME280;17927;52.350;13.402;2024-03-02T08:31:32;100344.75;;;13.75;61.24
31299;BME280;17927;52.350;13.402;2024-03-02T08:33:58;100341.84;;;13.76;61.25
31299;BME280;17927;52.350;13.402;2024-03-02T08:36:24;100336.25;;;13.78;61.33
31299;BME280;17927;52.350;13.402;2024-03-02T08:38:50;100334.38;;;13.78;61.13
31299;BME280;17927;52.350;13.402;2024-03-02T08:41:15;100338.78;;;13.79;60.99
31299;BME280;17927;52.350;13.402;2024-03-02T08:43:41;100342.19;;;13.81;61.21
31299;BME280;17927;52.350;13.402;2024-03-02T08:46:07;100346.59;;;13.82;60.99
31299;BME280;17927;52.350;13.402;2024-03-02T08:48:32;100351.81;;;13.84;61.11
31299;BME280;17927;52.350;13.402;2024-03-02T08:50:57;100343.69;;;13.84;61.16
31299;BME280;17927;52.350;13.402;2024-03-02T08:53:23;100353.34;;;13.86;60.94
31299;BME280;17927;52.350;13.402;2024-03-02T08:55:48;100350.81;;;13.85;60.91
31299;BME280;17927;52.350;13.402;2024-03-02T08:58:14;100357.94;;;13.86;61.03
31299;BME280;17927;52.350;13.402;2024-03-02T09:00:39;100350.63;;;13.86;60.83
31299;BME280;17927;52.350;13.402;2024-03-02T09:03:05;100356.72;;;13.89;60.93
31299;BME280;17927;52.350;13.402;2024-03-02T09:05:30;100360.97;;;13.91;60.82
31299;BME280;17927;52.350;13.402;2024-03-02T09:07:55;100365.41;;;13.92;60.63
31299;BME280;17927;52.350;13.402;2024-03-02T09:10:21;100370.63;;;13.94;60.60
31299;BME280;17927;52.350;13.402;2024-03-02T09:12:46;100374.38;;;13.93;60.75
31299;BME280;17927;52.350;13.402;2024-03-02T09:15:11;100377.78;;;13.95;60.56
31299;BME280;17927;52.350;13.402;2024-03-02T09:17:37;100374.19;;;13.94;60.44
31299;BME280;17927;52.350;13.402;2024-03-02T09:20:02;100374.19;;;13.94;60.48
31299;BME280;17927;52.350;13.402;2024-03-02T09:22:29;100367.75;;;13.95;60.15
31299;BME280;17927;52.350;13.402;2024-03-02T09:24:54;100378.25;;;13.98;60.26
31299;BME280;17927;52.350;13.402;2024-03-02T09:27:20;100371.81;;;13.99;60.34
31299;BME280;17927;52.350;13.402;2024-03-02T09:29:45;100378.94;;;14.00;60.47
31299;BME280;17927;52.350;13.402;2024-03-02T09:32:13;100369.75;;;14.01;60.21
31299;BME280;17927;52.350;13.402;2024-03-02T09:34:38;100378.59;;;14.04;60.19
31299;BME280;17927;52.350;13.402;2024-03-02T09:37:04;100379.06;;;14.07;60.35
31299;BME280;17927;52.350;13.402;2024-03-02T09:39:29;100374.31;;;14.09;60.40
31299;BME280;17927;52.350;13.402;2024-03-02T09:41:55;100362.94;;;14.14;60.37
31299;BME280;17927;52.350;13.402;2024-03-02T09:44:20;100364.09;;;14.20;60.53
31299;BME280;17927;52.350;13.402;2024-03-02T09:46:51;100360.69;;;14.26;60.37
31299;BME280;17927;52.350;13.402;2024-03-02T09:49:16;100365.22;;;14.34;60.44
31299;BME280;17927;52.350;13.402;2024-03-02T09:51:46;100363.47;;;14.41;60.22
31299;BME280;17927;52.350;13.402;2024-03-02T09:54:12;100374.50;;;14.48;60.19
31299;BME280;17927;52.350;13.402;2024-03-02T09:56:38;100375.47;;;14.55;60.03
31299;BME280;17927;52.350;13.402;2024-03-02T09:59:03;100374.56;;;14.62;60.18
31299;BME280;17927;52.350;13.402;2024-03-02T10:01:30;100372.03;;;14.69;60.00
31299;BME280;17927;52.350;13.402;2024-03-02T10:03:59;100373.00;;;14.76;59.88
31299;BME280;17927;52.350;13.402;2024-03-02T10:06:25;100371.09;;;14.85;59.92
31299;BME280;17927;52.350;13.402;2024-03-02T10:08:51;100373.72;;;14.94;59.78
31299;BME280;17927;52.350;13.402;2024-03-02T10:11:33;100373.69;;;15.02;59.54
31299;BME280;17927;52.350;13.402;2024-03-02T10:14:11;100377.56;;;15.07;59.48
31299;BME280;17927;52.350;13.402;2024-03-02T10:16:37;100370.34;;;15.15;59.59
31299;BME280;17927;52.350;13.402;2024-03-02T10:19:19;100365.88;;;15.22;59.22
31299;BME280;17927;52.350;13.402;2024-03-02T10:21:51;100359.00;;;15.26;59.13
31299;BME280;17927;52.350;13.402;2024-03-02T10:24:18;100370.03;;;15.33;59.42
31299;BME280;17927;52.350;13.402;2024-03-02T10:26:44;100362.81;;;15.40;58.92
31299;BME280;17927;52.350;13.402;2024-03-02T10:29:09;100364.81;;;15.46;58.83
31299;BME280;17927;52.350;13.402;2024-03-02T10:31:37;100365.94;;;15.52;58.49
31299;BME280;17927;52.350;13.402;2024-03-02T10:34:03;100364.53;;;15.56;58.67
31299;BME280;17927;52.350;13.402;2024-03-02T10:36:29;100357.69;;;15.60;58.67
31299;BME280;17927;52.350;13.402;2024-03-02T10:38:56;100361.53;;;15.66;58.58
31299;BME280;17927;52.350;13.402;2024-03-02T10:41:23;100358.91;;;15.73;58.49
31299;BME280;17927;52.350;13.402;2024-03-02T10:43:51;100366.34;;;15.79;58.19
31299;BME280;17927;52.350;13.402;2024-03-02T10:46:19;100358.63;;;15.82;58.20
31299;BME280;17927;52.350;13.402;2024-03-02T10:48:46;100357.09;;;15.88;58.06
31299;BME280;17927;52.350;13.402;2024-03-02T10:51:11;100361.78;;;15.94;58.02
31299;BME280;17927;52.350;13.402;2024-03-02T10:53:37;100359.13;;;16.01;57.93
31299;BME280;17927;52.350;13.402;2024-03-02T10:56:03;100365.34;;;16.10;57.84
31299;BME280;17927;52.350;13.402;2024-03-02T10:58:33;100365.44;;;16.17;57.58
31299;BME280;17927;52.350;13.402;2024-03-02T11:01:03;100365.34;;;16.25;57.56
31299;BME280;17927;52.350;13.402;2024-03-02T11:03:32;100366.25;;;16.32;57.18
31299;BME280;17927;52.350;13.402;2024-03-02T11:05:59;100367.56;;;16.36;57.07
31299;BME280;17927;52.350;13.402;2024-03-02T11:08:26;100364.09;;;16.42;57.02
31299;BME280;17927;52.350;13.402;2024-03-02T11:10:58;100364.34;;;16.48;56.64
31299;BME280;17927;52.350;13.402;2024-03-02T11:13:32;100365.44;;;16.53;56.96
31299;BME280;17927;52.350;13.402;2024-03-02T11:16:04;100352.38;;;16.64;57.30
31299;BME280;17927;52.350;13.402;2024-03-02T11:18:31;100346.84;;;16.79;57.70
31299;BME280;17927;52.350;13.402;2024-03-02T11:20:58;100342.19;;;16.94;57.21
31299;BME280;17927;52.350;13.402;2024-03-02T11:23:33;100340.09;;;17.11;57.42
31299;BME280;17927;52.350;13.402;2024-03-02T11:26:21;100341.66;;;17.27;57.04
31299;BME280;17927;52.350;13.402;2024-03-02T11:28:46;100352.03;;;17.39;56.97
31299;BME280;17927;52.350;13.402;2024-03-02T11:31:12;100346.69;;;17.52;56.34
31299;BME280;17927;52.350;13.402;2024-03-02T11:33:37;100358.50;;;17.59;55.79
31299;BME280;17927;52.350;13.402;2024-03-02T11:36:03;100358.13;;;17.62;55.23
31299;BME280;17927;52.350;13.402;2024-03-02T11:38:33;100353.53;;;17.70;55.07
31299;BME280;17927;52.350;13.402;2024-03-02T11:41:07;100353.78;;;17.75;54.93
31299;BME280;17927;52.350;13.402;2024-03-02T11:43:40;100346.66;;;17.80;54.82
31299;BME280;17927;52.350;13.402;2024-03-02T11:46:07;100352.38;;;17.86;55.06
31299;BME280;17927;52.350;13.402;2024-03-02T11:48:33;100351.56;;;17.92;54.89
31299;BME280;17927;52.350;13.402;2024-03-02T11:51:00;100350.97;;;17.96;54.55
31299;BME280;17927;52.350;13.402;2024-03-02T11:53:28;100349.16;;;18.04;54.19
31299;BME280;17927;52.350;13.402;2024-03-02T11:55:55;100360.31;;;18.09;53.47
31299;BME280;17927;52.350;13.402;2024-03-02T11:58:21;100355.50;;;18.11;53.54
31299;BME280;17927;52.350;13.402;2024-03-02T12:00:53;100356.97;;;18.14;53.31
31299;BME280;17927;52.350;13.402;2024-03-02T12:03:23;100353.84;;;18.17;52.93
31299;BME280;17927;52.350;13.402;2024-03-02T12:05:53;100349.22;;;18.17;52.55
31299;BME280;17927;52.350;13.402;2024-03-02T12:08:18;100358.06;;;18.19;52.90
31299;BME280;17927;52.350;13.402;2024-03-02T12:10:58;100354.06;;;18.22;52.12
31299;BME280;17927;52.350;13.402;2024-03-02T12:13:24;100355.75;;;18.23;52.87
31299;BME280;17927;52.350;13.402;2024-03-02T12:15:53;100334.34;;;18.26;52.30
31299;BME280;17927;52.350;13.402;2024-03-02T12:18:20;100341.06;;;18.31;52.63
31299;BME280;17927;52.350;13.402;2024-03-02T12:20:45;100345.72;;;18.37;52.85
31299;BME280;17927;52.350;13.402;2024-03-02T12:23:10;100339.00;;;18.39;52.59
31299;BME280;17927;52.350;13.402;2024-03-02T12:25:35;100332.28;;;18.42;52.82
31299;BME280;17927;52.350;13.402;2024-03-02T12:28:01;100335.22;;;18.47;52.52
31299;BME280;17927;52.350;13.402;2024-03-02T12:30:29;100335.69;;;18.51;52.21
31299;BME280;17927;52.350;13.402;2024-03-02T12:32:54;100332.31;;;18.55;52.06
31299;BME280;17927;52.350;13.402;2024-03-02T12:35:20;100328.97;;;18.60;52.12
31299;BME280;17927;52.350;13.402;2024-03-02T12:37:50;100338.22;;;18.66;51.89